Terminal Aerodrome Forecast
Issued by NWS

Home | Current Version | Previous Version | Text Only | Print | Product List | Glossary On
Versions: 1 2 3 4 5 6 7 8 9 10 11 12 13 14
000
FTUS42 KTAE 202328
TAFVLD
TAF
KVLD 202328Z 2100/2124 09008KT P6SM BKN050
     FM210900 08007KT P6SM BKN020
     FM211800 09015KT P6SM BKN025=

USA.gov is the U.S. government's official web portal to all federal, state and local government web resources and services.